Time;durP1;ratioP1;P1;durP2;ratioP2;P2;SDS_P1;SDS_P2;PMS_P1;PMS_P2;Temp;Humidity;BMP_temperature;BMP_pressure;BME280_temperature;BME280_humidity;BME280_pressure;Samples;Min_cycle;Max_cycle;Signal;HPM_P1;HPM_P2
2021/04/30 00:01:41;;;;;;;6.47;5.83;;;8.40;99.90;;;;;;5039656;28;20461;-92
2021/04/30 00:04:07;;;;;;;6.60;6.00;;;8.40;99.90;;;;;;5039850;28;20442;-91
2021/04/30 00:06:33;;;;;;;6.77;5.93;;;8.40;99.90;;;;;;5038886;28;20454;-92
2021/04/30 00:09:00;;;;;;;6.27;5.63;;;8.50;99.90;;;;;;5038288;28;20446;-92
2021/04/30 00:11:26;;;;;;;8.17;6.50;;;8.50;99.90;;;;;;5037422;28;20505;-92
2021/04/30 00:13:52;;;;;;;8.43;5.77;;;8.50;99.90;;;;;;5037213;28;20435;-91
2021/04/30 00:16:19;;;;;;;6.13;5.50;;;8.40;99.90;;;;;;5037028;28;20494;-91
2021/04/30 00:18:46;;;;;;;6.70;5.60;;;8.50;99.90;;;;;;5037047;28;20914;-91
2021/04/30 00:21:12;;;;;;;6.60;5.97;;;8.50;99.90;;;;;;5037229;28;20459;-91
2021/04/30 00:23:38;;;;;;;7.20;5.83;;;8.50;99.90;;;;;;5036597;28;20435;-92
2021/04/30 00:26:07;;;;;;;7.73;6.50;;;8.50;99.90;;;;;;5036872;28;20458;-92
2021/04/30 00:28:34;;;;;;;7.00;5.80;;;8.50;99.90;;;;;;5036488;28;20438;-92
2021/04/30 00:31:01;;;;;;;6.50;5.80;;;8.50;99.90;;;;;;5036224;28;20465;-92
2021/04/30 00:33:28;;;;;;;6.53;5.80;;;8.50;99.90;;;;;;5036161;28;20454;-91
2021/04/30 00:35:55;;;;;;;6.60;5.10;;;8.50;99.90;;;;;;5036252;28;20465;-92
2021/04/30 00:38:22;;;;;;;6.20;5.60;;;8.50;99.90;;;;;;5036451;28;20439;-92
2021/04/30 00:40:49;;;;;;;6.37;5.77;;;8.50;99.90;;;;;;5036233;28;20946;-91
2021/04/30 00:43:15;;;;;;;5.93;5.33;;;8.50;99.90;;;;;;5036266;28;20946;-92
2021/04/30 00:45:42;;;;;;;6.10;5.50;;;8.50;99.90;;;;;;5036565;28;20454;-93
2021/04/30 00:48:10;;;;;;;6.83;6.20;;;8.50;99.90;;;;;;5036433;28;20451;-93
2021/04/30 00:50:38;;;;;;;7.70;5.80;;;8.50;99.90;;;;;;5036212;28;20487;-92
2021/04/30 00:53:05;;;;;;;8.70;6.60;;;8.40;99.90;;;;;;5035983;28;20435;-93
2021/04/30 00:55:31;;;;;;;8.27;5.93;;;8.40;99.90;;;;;;5036029;28;20431;-93
2021/04/30 00:58:00;;;;;;;7.67;6.87;;;8.40;99.90;;;;;;5035721;28;20989;-92
2021/04/30 01:00:28;;;;;;;7.70;6.87;;;8.40;99.90;;;;;;5035784;28;20451;-93
2021/04/30 01:02:55;;;;;;;6.87;6.17;;;8.40;99.90;;;;;;5036310;28;20458;-93
2021/04/30 01:05:23;;;;;;;7.30;6.60;;;8.40;99.90;;;;;;5035802;28;20811;-92
2021/04/30 01:07:51;;;;;;;7.00;6.30;;;8.40;99.90;;;;;;5035602;28;20466;-92
2021/04/30 01:10:18;;;;;;;7.77;6.47;;;8.30;99.90;;;;;;5035759;28;20446;-92
2021/04/30 01:12:45;;;;;;;6.90;6.20;;;8.40;99.90;;;;;;5034629;28;20992;-93
2021/04/30 01:15:13;;;;;;;7.37;5.90;;;8.30;99.90;;;;;;5036218;28;20463;-93
2021/04/30 01:17:39;;;;;;;7.47;5.77;;;8.30;99.90;;;;;;5036524;28;21000;-93
2021/04/30 01:20:07;;;;;;;6.90;6.20;;;8.30;99.90;;;;;;5035437;28;20447;-92
2021/04/30 01:22:35;;;;;;;8.30;6.40;;;8.30;99.90;;;;;;5035577;28;20431;-92
2021/04/30 01:25:02;;;;;;;7.50;6.80;;;8.40;99.90;;;;;;5035738;28;20431;-92
2021/04/30 01:27:29;;;;;;;7.53;6.40;;;8.30;99.90;;;;;;5035576;28;20475;-92
2021/04/30 01:29:55;;;;;;;9.83;7.90;;;8.30;99.90;;;;;;5036086;28;20526;-93
2021/04/30 01:32:21;;;;;;;7.67;6.83;;;8.20;99.90;;;;;;5035018;28;20435;-91
2021/04/30 01:34:48;;;;;;;8.60;6.87;;;8.20;99.90;;;;;;5034850;28;20446;-90
2021/04/30 01:37:14;;;;;;;9.87;7.17;;;8.10;99.90;;;;;;5034809;28;20485;-93
2021/04/30 01:39:41;;;;;;;8.40;6.80;;;8.20;99.90;;;;;;5034865;28;20431;-93
2021/04/30 01:42:08;;;;;;;6.90;6.30;;;8.20;99.90;;;;;;5034971;28;20435;-93
2021/04/30 01:44:35;;;;;;;9.20;7.50;;;8.20;99.90;;;;;;5035286;28;20461;-93
2021/04/30 01:47:02;;;;;;;7.57;6.77;;;8.30;99.90;;;;;;5034959;28;20458;-93
2021/04/30 01:49:28;;;;;;;8.93;6.27;;;8.30;99.90;;;;;;5035114;28;20466;-93
2021/04/30 01:51:54;;;;;;;7.23;6.20;;;8.30;99.90;;;;;;5034898;28;20768;-90
2021/04/30 01:54:21;;;;;;;8.53;7.17;;;8.30;99.90;;;;;;5034468;28;20431;-90
2021/04/30 01:56:49;;;;;;;9.33;7.20;;;8.20;99.90;;;;;;5034327;28;20494;-90
2021/04/30 01:59:16;;;;;;;9.80;7.63;;;8.20;99.90;;;;;;5034461;28;20934;-90
2021/04/30 02:01:42;;;;;;;9.87;7.40;;;8.20;99.90;;;;;;5034491;28;20816;-90
2021/04/30 02:04:11;;;;;;;9.30;7.40;;;8.20;99.90;;;;;;5034256;28;20473;-90
2021/04/30 02:06:38;;;;;;;9.97;7.87;;;8.20;99.90;;;;;;5034535;28;20465;-91
2021/04/30 02:09:05;;;;;;;9.70;7.37;;;8.10;99.90;;;;;;5034698;28;20450;-92
2021/04/30 02:11:31;;;;;;;9.20;7.30;;;8.10;99.90;;;;;;5034493;28;20438;-93
2021/04/30 02:13:58;;;;;;;8.83;7.70;;;8.10;99.90;;;;;;5034394;28;20513;-92
2021/04/30 02:16:25;;;;;;;11.67;7.87;;;8.00;99.90;;;;;;5034401;28;20551;-92
2021/04/30 02:18:51;;;;;;;13.70;9.03;;;7.90;99.90;;;;;;5034414;28;20948;-93
2021/04/30 02:21:17;;;;;;;10.70;9.10;;;7.80;99.90;;;;;;5035018;28;20813;-92
2021/04/30 02:23:43;;;;;;;12.67;8.43;;;7.80;99.90;;;;;;5038485;28;20458;-93
2021/04/30 02:26:10;;;;;;;11.63;8.17;;;7.80;99.90;;;;;;5040777;28;20454;-93
2021/04/30 02:28:36;;;;;;;10.33;8.37;;;7.70;99.90;;;;;;5040825;28;20430;-93
2021/04/30 02:31:04;;;;;;;14.03;9.90;;;7.80;99.90;;;;;;5041100;28;20533;-94
2021/04/30 02:33:30;;;;;;;10.40;7.33;;;7.70;99.90;;;;;;5040818;28;20437;-93
2021/04/30 02:35:57;;;;;;;13.47;9.37;;;7.70;99.90;;;;;;5041050;28;20454;-93
2021/04/30 02:38:23;;;;;;;12.23;8.40;;;7.60;99.90;;;;;;5040762;28;20483;-93
2021/04/30 02:40:52;;;;;;;12.57;8.70;;;7.60;99.90;;;;;;5040869;28;20430;-93
2021/04/30 02:43:21;;;;;;;13.43;8.67;;;7.50;99.90;;;;;;5041064;28;20486;-93
2021/04/30 02:45:51;;;;;;;10.53;8.33;;;7.50;99.90;;;;;;5040944;28;20510;-94
2021/04/30 02:48:24;;;;;;;12.67;8.43;;;7.40;99.90;;;;;;5041051;28;20493;-92
2021/04/30 02:50:51;;;;;;;10.70;8.37;;;7.40;99.90;;;;;;5041081;28;20481;-91
2021/04/30 02:53:17;;;;;;;10.17;8.00;;;7.30;99.90;;;;;;5040916;28;20438;-92
2021/04/30 02:55:44;;;;;;;12.20;8.57;;;7.30;99.90;;;;;;5040663;28;20882;-93
2021/04/30 02:58:11;;;;;;;13.70;9.37;;;7.30;99.90;;;;;;5041176;28;20504;-92
2021/04/30 03:00:38;;;;;;;12.97;9.13;;;7.20;99.90;;;;;;5040796;28;20513;-91
2021/04/30 03:03:04;;;;;;;10.40;8.13;;;7.20;99.90;;;;;;5040251;28;20439;-93
2021/04/30 03:05:32;;;;;;;10.07;7.63;;;7.20;99.90;;;;;;5040462;28;20451;-92
2021/04/30 03:07:58;;;;;;;11.10;7.87;;;7.20;99.90;;;;;;5040872;28;20805;-92
2021/04/30 03:10:25;;;;;;;9.97;7.57;;;7.30;99.90;;;;;;5040490;28;20439;-92
2021/04/30 03:12:51;;;;;;;11.43;8.37;;;7.30;99.90;;;;;;5040462;28;20470;-91
2021/04/30 03:15:19;;;;;;;8.80;6.90;;;7.40;99.90;;;;;;5040311;28;20965;-92
2021/04/30 03:17:46;;;;;;;11.30;8.00;;;7.40;99.90;;;;;;5040497;28;20516;-94
2021/04/30 03:20:14;;;;;;;13.03;8.73;;;7.50;99.90;;;;;;5040616;28;20446;-91
2021/04/30 03:22:41;;;;;;;13.33;8.93;;;7.50;99.90;;;;;;5040453;28;20817;-91
2021/04/30 03:25:10;;;;;;;11.40;9.50;;;7.50;99.90;;;;;;5040257;28;20461;-89
2021/04/30 03:27:36;;;;;;;12.37;8.80;;;7.50;99.90;;;;;;5040348;28;20473;-91
2021/04/30 08:12:34;;;;;;;11.40;8.70;;;8.50;99.90;;;;;;5003067;28;20889;-90
2021/04/30 08:15:00;;;;;;;13.73;9.53;;;8.40;99.90;;;;;;5017072;28;20451;-91
2021/04/30 08:17:29;;;;;;;14.10;8.40;;;8.50;99.90;;;;;;5017016;28;20598;-91
2021/04/30 08:19:58;;;;;;;12.10;8.97;;;8.50;99.90;;;;;;5017341;28;20448;-91
2021/04/30 08:22:24;;;;;;;13.30;8.97;;;8.50;99.90;;;;;;5016856;28;20469;-90
2021/04/30 08:24:51;;;;;;;14.40;10.27;;;8.50;99.90;;;;;;5017133;28;20443;-91
2021/04/30 08:27:19;;;;;;;12.47;8.83;;;8.60;99.90;;;;;;5016527;28;21010;-91
2021/04/30 08:29:46;;;;;;;12.77;10.20;;;8.70;99.90;;;;;;5017054;28;20535;-91
2021/04/30 08:32:12;;;;;;;11.20;8.60;;;8.70;99.90;;;;;;5017253;28;20448;-91
2021/04/30 08:34:39;;;;;;;13.23;8.73;;;8.70;99.90;;;;;;5024884;28;20443;-91
2021/04/30 08:37:05;;;;;;;11.60;8.50;;;8.90;99.90;;;;;;5030768;28;20475;-90
2021/04/30 08:39:31;;;;;;;11.07;8.50;;;9.10;99.90;;;;;;5033330;28;20547;-89
2021/04/30 08:41:58;;;;;;;10.80;8.37;;;9.20;99.90;;;;;;5030283;28;20460;-91
2021/04/30 08:44:24;;;;;;;13.40;9.17;;;9.20;99.90;;;;;;5024015;28;20452;-90
2021/04/30 08:46:51;;;;;;;11.07;8.53;;;9.30;99.90;;;;;;5021453;28;20451;-90
2021/04/30 08:49:18;;;;;;;12.80;10.13;;;9.30;99.90;;;;;;5023289;28;20855;-90
2021/04/30 08:51:44;;;;;;;11.47;9.57;;;9.40;99.90;;;;;;5018932;28;20506;-90
2021/04/30 08:54:11;;;;;;;12.17;8.47;;;9.40;99.90;;;;;;5019315;28;20464;-90
2021/04/30 08:56:44;;;;;;;12.00;8.90;;;9.40;99.90;;;;;;5019214;28;20468;-91
2021/04/30 08:59:12;;;;;;;12.60;9.47;;;9.40;99.90;;;;;;5019122;28;20451;-90
2021/04/30 09:01:39;;;;;;;19.73;9.20;;;9.50;99.90;;;;;;5022546;28;20409;-90
2021/04/30 09:04:07;;;;;;;11.63;9.37;;;9.50;99.90;;;;;;5023197;28;20786;-90
2021/04/30 09:06:34;;;;;;;13.80;9.00;;;9.50;99.90;;;;;;5021979;28;20458;-91
2021/04/30 09:09:08;;;;;;;12.43;9.63;;;9.50;99.90;;;;;;5021335;28;20444;-91
2021/04/30 09:11:36;;;;;;;15.03;10.27;;;9.50;99.90;;;;;;5020309;28;20427;-90
2021/04/30 09:14:29;;;;;;;15.27;10.10;;;9.50;99.90;;;;;;5017719;28;20969;-91
2021/04/30 09:17:05;;;;;;;15.23;9.03;;;9.40;99.90;;;;;;5017386;28;20459;-90
2021/04/30 09:19:34;;;;;;;15.70;9.87;;;9.30;99.90;;;;;;5021292;28;20546;-90
2021/04/30 09:22:03;;;;;;;15.03;9.50;;;9.30;99.90;;;;;;5017471;28;20409;-90
2021/04/30 09:24:30;;;;;;;16.63;10.83;;;9.20;99.90;;;;;;5017086;28;20447;-90
2021/04/30 09:26:57;;;;;;;13.37;10.00;;;9.10;99.90;;;;;;5017426;28;20492;-91
2021/04/30 09:29:26;;;;;;;15.13;9.27;;;9.20;99.90;;;;;;5017549;28;20949;-90
2021/04/30 09:31:53;;;;;;;17.47;9.87;;;9.30;99.90;;;;;;5017142;28;20789;-89
2021/04/30 09:34:26;;;;;;;12.33;9.13;;;9.20;99.90;;;;;;5017005;28;20447;-90
2021/04/30 09:37:04;;;;;;;16.13;10.70;;;9.20;99.90;;;;;;5018034;28;20479;-90
2021/04/30 09:39:47;;;;;;;14.37;9.83;;;9.30;99.90;;;;;;5017877;28;20454;-89
2021/04/30 09:42:16;;;;;;;10.73;8.60;;;9.30;99.90;;;;;;5018451;28;20435;-90
2021/04/30 09:44:44;;;;;;;13.37;9.90;;;9.40;99.90;;;;;;5017450;28;20874;-90
2021/04/30 09:47:16;;;;;;;11.47;8.90;;;9.40;99.90;;;;;;5017690;28;20456;-90
2021/04/30 09:49:43;;;;;;;12.53;9.00;;;9.40;99.90;;;;;;5017626;28;20487;-91
2021/04/30 09:52:10;;;;;;;15.70;9.80;;;9.50;99.90;;;;;;5018360;28;20435;-90
2021/04/30 09:54:38;;;;;;;14.17;8.17;;;9.50;99.90;;;;;;5017200;28;20440;-90
2021/04/30 09:57:10;;;;;;;11.50;8.03;;;9.50;99.90;;;;;;5016999;28;20558;-91
2021/04/30 09:59:37;;;;;;;12.30;8.87;;;9.50;99.90;;;;;;5016066;28;20412;-91
2021/04/30 10:02:06;;;;;;;11.90;8.77;;;9.50;99.90;;;;;;5017796;28;20415;-90
2021/04/30 10:04:34;;;;;;;12.80;9.80;;;9.50;99.90;;;;;;5016572;28;20945;-91
2021/04/30 10:07:02;;;;;;;14.07;10.60;;;9.30;99.90;;;;;;5017109;28;21005;-90
2021/04/30 10:09:31;;;;;;;14.80;10.20;;;9.30;99.90;;;;;;5020271;28;20463;-91
2021/04/30 10:11:58;;;;;;;14.10;9.47;;;9.30;99.90;;;;;;5015965;28;20479;-91
2021/04/30 10:14:25;;;;;;;12.10;9.70;;;9.20;99.90;;;;;;5015899;28;20450;-90
2021/04/30 10:16:52;;;;;;;11.43;8.60;;;9.20;99.90;;;;;;5015239;28;20471;-91
2021/04/30 10:19:18;;;;;;;12.03;9.23;;;9.20;99.90;;;;;;5015650;28;20543;-91
2021/04/30 10:21:45;;;;;;;17.30;10.03;;;9.20;99.90;;;;;;5015521;28;20476;-91
2021/04/30 10:24:15;;;;;;;13.70;10.00;;;9.10;99.90;;;;;;5016447;28;20459;-92
2021/04/30 10:26:42;;;;;;;15.77;10.00;;;9.00;99.90;;;;;;5015713;28;20507;-89
2021/04/30 10:29:14;;;;;;;19.40;11.20;;;9.00;99.90;;;;;;5014898;28;20511;-91
2021/04/30 10:31:45;;;;;;;14.13;10.80;;;8.90;99.90;;;;;;5015708;28;20771;-91
2021/04/30 10:34:17;;;;;;;16.90;10.60;;;8.80;99.90;;;;;;5016581;28;20536;-91
2021/04/30 10:36:49;;;;;;;14.87;10.20;;;8.70;99.90;;;;;;5015007;28;20448;-90
2021/04/30 10:39:25;;;;;;;15.43;10.50;;;8.60;99.90;;;;;;5016519;28;20961;-91
2021/04/30 10:41:52;;;;;;;16.13;11.53;;;8.40;99.90;;;;;;5014624;28;20416;-91
2021/04/30 10:44:21;;;;;;;20.10;12.83;;;8.20;99.90;;;;;;5016415;28;20835;-90
2021/04/30 10:46:50;;;;;;;19.00;12.10;;;7.90;99.90;;;;;;5018298;28;20567;-90
2021/04/30 10:49:20;;;;;;;23.80;13.30;;;7.80;99.90;;;;;;5017891;28;20471;-92
2021/04/30 10:55:10;;;;;;;23.63;13.10;;;7.60;99.90;;;;;;5017736;28;20429;-89
2021/04/30 13:23:03;;;;;;;13.87;9.67;;;6.20;99.90;;;;;;5032363;28;20561;-79
2021/04/30 13:25:35;;;;;;;13.07;9.70;;;6.20;99.90;;;;;;5034361;28;20453;-79
2021/04/30 13:28:10;;;;;;;14.60;9.93;;;6.30;99.90;;;;;;5034163;28;20462;-79
2021/04/30 13:30:38;;;;;;;15.10;9.77;;;6.20;99.90;;;;;;5034568;28;20435;-79
2021/04/30 13:33:18;;;;;;;12.70;9.43;;;6.20;99.90;;;;;;5034435;28;20419;-79
2021/04/30 13:35:45;;;;;;;16.57;10.30;;;6.10;99.90;;;;;;5034004;28;20430;-79
2021/04/30 13:38:19;;;;;;;15.80;9.93;;;6.00;99.90;;;;;;5033664;28;20462;-79
2021/04/30 13:40:45;;;;;;;13.50;9.40;;;6.10;99.90;;;;;;5033987;28;20438;-79
2021/04/30 13:43:11;;;;;;;15.50;9.97;;;6.10;99.90;;;;;;5033960;28;20460;-79
2021/04/30 13:45:37;;;;;;;16.40;9.70;;;6.20;99.90;;;;;;5033600;28;20898;-79
2021/04/30 13:48:05;;;;;;;15.70;9.90;;;6.20;99.90;;;;;;5033805;28;20469;-79
2021/04/30 13:50:32;;;;;;;14.70;9.83;;;6.30;99.90;;;;;;5034386;28;20439;-79
2021/04/30 13:53:00;;;;;;;12.33;9.20;;;6.40;99.90;;;;;;5033772;28;20431;-79
2021/04/30 13:55:28;;;;;;;12.40;8.50;;;6.40;99.90;;;;;;5033753;28;20439;-79
2021/04/30 13:57:54;;;;;;;11.93;8.47;;;6.40;99.90;;;;;;5033313;28;20989;-79
2021/04/30 14:00:23;;;;;;;13.77;9.70;;;6.40;99.90;;;;;;5033634;28;20427;-79
2021/04/30 14:02:51;;;;;;;12.37;8.67;;;6.40;99.90;;;;;;5033659;28;20497;-79
2021/04/30 14:05:18;;;;;;;12.80;9.30;;;6.30;99.90;;;;;;5033608;28;20427;-79
2021/04/30 14:07:45;;;;;;;12.87;8.30;;;6.40;99.90;;;;;;5033479;28;20462;-79
2021/04/30 14:10:14;;;;;;;13.60;8.63;;;6.40;99.90;;;;;;5033315;28;20910;-79
2021/04/30 14:12:41;;;;;;;13.57;9.40;;;6.50;99.90;;;;;;5033536;28;20431;-79
2021/04/30 14:15:10;;;;;;;12.50;9.07;;;6.50;99.90;;;;;;5033543;28;20427;-80
2021/04/30 14:17:37;;;;;;;16.60;9.90;;;6.60;99.90;;;;;;5032998;28;21063;-79
2021/04/30 14:20:04;;;;;;;12.77;8.67;;;6.70;99.90;;;;;;5033065;28;20435;-79
2021/04/30 14:22:30;;;;;;;11.73;8.70;;;6.80;99.90;;;;;;5033008;28;20498;-79
2021/04/30 14:24:56;;;;;;;10.23;8.33;;;6.90;99.90;;;;;;5033430;28;20435;-79
2021/04/30 14:27:24;;;;;;;12.33;9.17;;;6.90;99.90;;;;;;5033364;28;20489;-79
2021/04/30 14:29:52;;;;;;;13.70;9.27;;;6.90;99.90;;;;;;5033522;28;20875;-79
2021/04/30 14:32:18;;;;;;;15.37;9.33;;;6.90;99.90;;;;;;5033316;28;20434;-79
2021/04/30 14:34:45;;;;;;;15.80;10.40;;;6.90;99.90;;;;;;5033389;28;20431;-80
2021/04/30 14:37:11;;;;;;;15.30;10.87;;;6.80;99.90;;;;;;5033197;28;20532;-80
2021/04/30 14:39:38;;;;;;;14.73;10.50;;;6.80;99.90;;;;;;5033366;28;20427;-79
2021/04/30 14:42:05;;;;;;;15.63;9.93;;;6.80;99.90;;;;;;5033442;28;20430;-79
2021/04/30 14:44:31;;;;;;;18.70;11.07;;;6.80;99.90;;;;;;5033431;28;20427;-80
2021/04/30 14:46:58;;;;;;;14.73;10.73;;;6.80;99.90;;;;;;5033579;28;20866;-80
2021/04/30 14:49:24;;;;;;;16.27;10.70;;;6.70;99.90;;;;;;5033263;28;20431;-80
2021/04/30 14:51:50;;;;;;;16.57;11.47;;;6.70;99.90;;;;;;5033428;28;20431;-80
2021/04/30 14:54:17;;;;;;;14.50;10.10;;;6.60;99.90;;;;;;5033391;28;20435;-80
2021/04/30 14:56:43;;;;;;;18.47;11.30;;;6.60;99.90;;;;;;5033142;28;20474;-80
2021/04/30 14:59:12;;;;;;;16.83;10.50;;;6.60;99.90;;;;;;5033038;28;20466;-80
2021/04/30 15:01:38;;;;;;;14.10;10.00;;;6.70;99.90;;;;;;5033103;28;20439;-80
2021/04/30 15:04:06;;;;;;;16.07;10.90;;;6.70;99.90;;;;;;5033094;28;20435;-80
2021/04/30 15:06:34;;;;;;;18.47;11.93;;;6.70;99.90;;;;;;5032902;28;20463;-80
2021/04/30 15:09:01;;;;;;;16.47;11.33;;;6.70;99.90;;;;;;5033030;28;20509;-80
2021/04/30 15:11:28;;;;;;;17.00;11.30;;;6.60;99.90;;;;;;5032912;28;20848;-80
2021/04/30 15:13:54;;;;;;;17.50;10.60;;;6.60;99.90;;;;;;5032648;28;20467;-80
2021/04/30 15:16:21;;;;;;;16.87;11.70;;;6.60;99.90;;;;;;5032884;28;20473;-80
2021/04/30 15:18:47;;;;;;;16.63;12.00;;;6.60;99.90;;;;;;5032879;28;20474;-80
2021/04/30 15:21:14;;;;;;;20.63;12.70;;;6.60;99.90;;;;;;5032785;28;20477;-80
2021/04/30 15:23:40;;;;;;;17.00;10.87;;;6.60;99.90;;;;;;5032872;28;20446;-81
2021/04/30 15:26:06;;;;;;;18.10;11.37;;;6.60;99.90;;;;;;5032494;28;21016;-80
2021/04/30 15:28:32;;;;;;;15.67;11.07;;;6.60;99.90;;;;;;5033006;28;20431;-80
2021/04/30 15:31:00;;;;;;;18.40;12.10;;;6.70;99.90;;;;;;5033662;28;20442;-81
2021/04/30 15:33:27;;;;;;;17.30;12.10;;;6.60;99.90;;;;;;5036172;28;20906;-81
2021/04/30 15:35:53;;;;;;;16.43;11.50;;;6.60;99.90;;;;;;5037051;28;20438;-81
2021/04/30 15:38:20;;;;;;;18.10;11.77;;;6.80;99.90;;;;;;5036228;28;20470;-80
2021/04/30 15:40:47;;;;;;;16.67;11.10;;;6.90;99.90;;;;;;5036265;28;20439;-80
2021/04/30 15:43:13;;;;;;;16.67;10.77;;;7.00;99.90;;;;;;5036792;28;20449;-80
2021/04/30 15:45:40;;;;;;;16.20;11.43;;;7.00;99.90;;;;;;5036258;28;20423;-80
2021/04/30 15:48:07;;;;;;;18.43;13.10;;;7.00;99.90;;;;;;5036332;28;20470;-80
2021/04/30 15:50:34;;;;;;;19.60;12.27;;;7.10;99.90;;;;;;5035839;28;20785;-80
2021/04/30 15:53:00;;;;;;;17.80;11.40;;;7.10;99.90;;;;;;5035721;28;20437;-80
2021/04/30 15:55:28;;;;;;;18.30;11.73;;;7.30;99.90;;;;;;5036311;28;20408;-80
2021/04/30 15:57:54;;;;;;;15.20;10.90;;;7.30;99.90;;;;;;5035763;28;20490;-80
2021/04/30 16:00:21;;;;;;;17.13;11.73;;;7.30;99.90;;;;;;5035928;28;20797;-80
2021/04/30 16:02:48;;;;;;;19.60;11.60;;;7.30;99.90;;;;;;5035926;28;20438;-80
2021/04/30 16:05:14;;;;;;;15.23;11.10;;;7.40;99.90;;;;;;5035875;28;20435;-80
2021/04/30 16:07:41;;;;;;;19.27;12.23;;;7.40;99.90;;;;;;5035396;28;20841;-80
2021/04/30 16:10:07;;;;;;;16.97;12.47;;;7.30;99.90;;;;;;5035695;28;20435;-80
2021/04/30 16:12:35;;;;;;;18.03;12.13;;;7.30;99.90;;;;;;5035681;28;20431;-81
2021/04/30 16:15:01;;;;;;;21.50;13.20;;;7.40;99.90;;;;;;5035694;28;20453;-80
2021/04/30 16:17:28;;;;;;;19.20;12.73;;;7.40;99.90;;;;;;5035709;28;20545;-80
2021/04/30 16:19:55;;;;;;;19.97;12.90;;;7.40;99.90;;;;;;5035212;28;20484;-81
2021/04/30 16:22:21;;;;;;;20.77;12.37;;;7.40;99.90;;;;;;5035049;28;20486;-80
2021/04/30 16:24:47;;;;;;;18.37;11.97;;;7.30;99.90;;;;;;5035098;28;20914;-80
2021/04/30 16:27:13;;;;;;;17.23;11.83;;;7.30;99.90;;;;;;5035330;28;20470;-80
2021/04/30 16:29:41;;;;;;;17.43;13.00;;;7.30;99.90;;;;;;5035303;28;20427;-80
2021/04/30 16:32:08;;;;;;;18.17;12.60;;;7.20;99.90;;;;;;5034984;28;20871;-80
2021/04/30 16:34:35;;;;;;;17.40;12.93;;;7.20;99.90;;;;;;5035255;28;20431;-80
2021/04/30 16:37:01;;;;;;;17.77;13.30;;;7.10;99.90;;;;;;5034874;28;20520;-81
2021/04/30 16:39:29;;;;;;;17.37;12.20;;;7.10;99.90;;;;;;5035932;28;20525;-80
2021/04/30 16:41:55;;;;;;;21.53;13.07;;;7.00;99.90;;;;;;5034451;28;20936;-80
2021/04/30 16:44:21;;;;;;;19.37;12.83;;;7.00;99.90;;;;;;5034782;28;20932;-80
2021/04/30 16:46:49;;;;;;;19.07;12.83;;;7.10;99.90;;;;;;5034932;28;20525;-81
2021/04/30 16:49:15;;;;;;;17.20;12.27;;;7.10;99.90;;;;;;5034994;28;20443;-81
2021/04/30 16:51:42;;;;;;;18.03;12.07;;;7.10;99.90;;;;;;5034915;28;20438;-80
2021/04/30 16:54:11;;;;;;;21.20;12.53;;;7.10;99.90;;;;;;5034862;28;20438;-81
2021/04/30 16:56:38;;;;;;;17.70;12.43;;;7.10;99.90;;;;;;5034784;28;20475;-81
2021/04/30 16:59:05;;;;;;;19.00;13.07;;;7.10;99.90;;;;;;5034508;28;21005;-80
2021/04/30 17:01:32;;;;;;;20.10;13.63;;;7.20;99.90;;;;;;5034663;28;20428;-80
2021/04/30 17:04:00;;;;;;;26.27;13.97;;;7.20;99.90;;;;;;5034717;28;20446;-80
2021/04/30 17:06:27;;;;;;;18.20;12.30;;;7.20;99.90;;;;;;5034659;28;20470;-81
2021/04/30 17:08:53;;;;;;;19.60;12.43;;;7.10;99.90;;;;;;5034634;28;20427;-80
2021/04/30 17:11:20;;;;;;;22.07;12.47;;;7.10;99.90;;;;;;5034547;28;20442;-81
2021/04/30 17:13:46;;;;;;;21.80;13.20;;;7.10;99.90;;;;;;5034487;28;20447;-80
2021/04/30 17:16:13;;;;;;;19.33;12.77;;;7.10;99.90;;;;;;5034695;28;20483;-81
2021/04/30 17:18:39;;;;;;;18.33;12.10;;;7.10;99.90;;;;;;5034371;28;20485;-81
2021/04/30 17:21:07;;;;;;;20.17;13.50;;;7.00;99.90;;;;;;5034483;28;20482;-81
2021/04/30 17:23:34;;;;;;;20.83;13.47;;;6.90;99.90;;;;;;5034543;28;20447;-81
2021/04/30 17:26:01;;;;;;;23.80;13.73;;;6.90;99.90;;;;;;5034458;28;20446;-81
2021/04/30 17:28:27;;;;;;;22.03;12.93;;;6.80;99.90;;;;;;5034709;28;20439;-81
2021/04/30 17:30:54;;;;;;;24.33;13.57;;;6.80;99.90;;;;;;5034592;28;20505;-81
2021/04/30 17:33:21;;;;;;;21.93;13.30;;;6.80;99.90;;;;;;5034775;28;20532;-81
2021/04/30 17:35:47;;;;;;;24.23;14.00;;;6.80;99.90;;;;;;5034804;28;20455;-81
2021/04/30 17:38:14;;;;;;;19.00;13.27;;;6.90;99.90;;;;;;5034911;28;20557;-81
2021/04/30 17:40:41;;;;;;;19.23;12.67;;;6.80;99.90;;;;;;5034661;28;20442;-81
2021/04/30 17:43:07;;;;;;;21.20;13.37;;;6.80;99.90;;;;;;5034681;28;20461;-81
2021/04/30 17:45:35;;;;;;;20.37;12.83;;;6.80;99.90;;;;;;5035658;28;20518;-81
2021/04/30 17:48:02;;;;;;;21.90;13.60;;;6.80;99.90;;;;;;5036174;28;20549;-81
2021/04/30 17:50:29;;;;;;;20.73;13.97;;;6.80;99.90;;;;;;5035845;28;20451;-82
2021/04/30 17:52:56;;;;;;;23.10;13.90;;;6.80;99.90;;;;;;5035583;28;20443;-82
2021/04/30 17:55:23;;;;;;;19.97;13.50;;;6.90;99.90;;;;;;5035441;28;20446;-82
2021/04/30 17:57:50;;;;;;;22.20;13.63;;;6.90;99.90;;;;;;5036108;28;20470;-82
2021/04/30 18:00:17;;;;;;;21.47;12.30;;;6.90;99.90;;;;;;5035237;28;20946;-81
2021/04/30 18:02:43;;;;;;;20.43;13.20;;;6.80;99.90;;;;;;5035733;28;20446;-81
2021/04/30 18:05:10;;;;;;;19.33;13.13;;;6.80;99.90;;;;;;5035220;28;20450;-81
2021/04/30 18:07:39;;;;;;;20.73;13.00;;;6.80;99.90;;;;;;5034714;28;20863;-81
2021/04/30 18:10:07;;;;;;;17.63;12.20;;;6.80;99.90;;;;;;5034524;28;20455;-81
2021/04/30 18:12:35;;;;;;;23.60;14.23;;;6.70;99.90;;;;;;5035559;28;20466;-80
2021/04/30 18:15:01;;;;;;;19.83;13.37;;;6.70;99.90;;;;;;5035824;28;20457;-81
2021/04/30 18:17:27;;;;;;;18.93;12.90;;;6.60;99.90;;;;;;5035724;28;20462;-80
2021/04/30 18:19:53;;;;;;;21.03;13.53;;;6.60;99.90;;;;;;5035349;28;20486;-81
2021/04/30 18:22:20;;;;;;;21.50;13.97;;;6.60;99.90;;;;;;5034748;28;20865;-80
2021/04/30 18:24:46;;;;;;;22.67;13.30;;;6.70;99.90;;;;;;5034886;28;20799;-80
2021/04/30 18:27:12;;;;;;;22.07;12.80;;;6.70;99.90;;;;;;5034827;28;20466;-81
2021/04/30 18:29:39;;;;;;;22.97;13.63;;;6.70;99.90;;;;;;5034687;28;20938;-80
2021/04/30 18:32:06;;;;;;;22.70;14.10;;;6.60;99.90;;;;;;5034250;28;20450;-81
2021/04/30 18:34:33;;;;;;;19.83;13.33;;;6.60;99.90;;;;;;5035208;28;20854;-81
2021/04/30 18:37:00;;;;;;;23.90;15.10;;;6.60;99.90;;;;;;5034727;28;20471;-81
2021/04/30 18:39:27;;;;;;;27.53;17.87;;;6.60;99.90;;;;;;5034670;28;20849;-81
2021/04/30 18:41:53;;;;;;;30.87;18.93;;;6.60;99.90;;;;;;5034547;28;20455;-81
2021/04/30 18:44:21;;;;;;;21.57;14.60;;;6.50;99.90;;;;;;5035094;28;20446;-81
2021/04/30 18:46:50;;;;;;;24.93;15.83;;;6.50;99.90;;;;;;5035749;28;20831;-81
2021/04/30 18:49:17;;;;;;;26.40;15.80;;;6.50;99.90;;;;;;5036909;28;20469;-81
2021/04/30 18:51:44;;;;;;;24.70;14.93;;;6.50;99.90;;;;;;5036185;28;20454;-81
2021/04/30 18:54:13;;;;;;;23.83;14.20;;;6.50;99.90;;;;;;5036160;28;20442;-81
2021/04/30 18:56:40;;;;;;;21.10;14.40;;;6.50;99.90;;;;;;5036142;28;20558;-81
2021/04/30 18:59:06;;;;;;;20.90;14.50;;;6.50;99.90;;;;;;5035571;28;20479;-81
2021/04/30 19:01:33;;;;;;;26.30;15.40;;;6.50;99.90;;;;;;5035724;28;20447;-81
2021/04/30 19:04:01;;;;;;;24.37;14.10;;;6.50;99.90;;;;;;5035143;28;20512;-81
2021/04/30 19:06:27;;;;;;;25.30;14.77;;;6.60;99.90;;;;;;5038441;28;20485;-81
2021/04/30 19:08:54;;;;;;;20.47;12.87;;;6.60;99.90;;;;;;5038790;28;20802;-81
2021/04/30 19:11:20;;;;;;;24.77;14.10;;;6.60;99.90;;;;;;5038389;28;20951;-81
2021/04/30 19:13:46;;;;;;;27.67;15.77;;;6.70;99.90;;;;;;5038856;28;20462;-81
2021/04/30 19:16:13;;;;;;;27.97;14.17;;;6.70;99.90;;;;;;5038147;28;20492;-81
2021/04/30 19:18:39;;;;;;;22.23;14.60;;;6.60;99.90;;;;;;5038073;28;20531;-81
2021/04/30 19:21:07;;;;;;;22.87;14.10;;;6.60;99.90;;;;;;5038099;28;20898;-81
2021/04/30 19:23:34;;;;;;;22.83;13.77;;;6.60;99.90;;;;;;5037845;28;20972;-81
2021/04/30 19:26:00;;;;;;;24.37;15.50;;;6.50;99.90;;;;;;5038493;28;20454;-81
2021/04/30 19:28:26;;;;;;;25.63;14.97;;;6.50;99.90;;;;;;5038138;28;20450;-81
2021/04/30 19:30:53;;;;;;;23.57;16.00;;;6.50;99.90;;;;;;5037783;28;20435;-81
2021/04/30 19:33:20;;;;;;;25.27;16.27;;;6.50;99.90;;;;;;5037434;28;20953;-81
2021/04/30 19:35:47;;;;;;;25.83;16.27;;;6.50;99.90;;;;;;5037626;28;20457;-81
2021/04/30 19:38:14;;;;;;;22.90;16.03;;;6.50;99.90;;;;;;5037740;28;20543;-81
2021/04/30 19:40:41;;;;;;;24.93;15.93;;;6.50;99.90;;;;;;5037776;28;20443;-81
2021/04/30 19:43:08;;;;;;;24.23;15.60;;;6.60;99.90;;;;;;5037880;28;20458;-81
2021/04/30 19:45:35;;;;;;;24.73;15.70;;;6.60;99.90;;;;;;5037474;28;20462;-81
2021/04/30 19:48:01;;;;;;;21.60;13.93;;;6.60;99.90;;;;;;5037445;28;20470;-81
2021/04/30 19:50:28;;;;;;;26.33;15.90;;;6.60;99.90;;;;;;5037090;28;20451;-81
2021/04/30 19:52:54;;;;;;;24.83;15.13;;;6.70;99.90;;;;;;5037263;28;20442;-81
2021/04/30 19:55:22;;;;;;;27.33;16.90;;;6.70;99.90;;;;;;5037280;28;20458;-81